메인 페이지
METAR-TAF:

METAR-TAF

공항 :

Childress, 텍사스, 미국

위도: 34-25-39N, 경도: 100-17-00W, 고도: 595m

현재 날씨관측

예보는 59분 전, 17:53시(UTC)에 발표되었습니다.
북북동10kt
온도 14°C
습도 24%
기압 1024 hPa
시정: 16.1km
맑음

METAR: KCDS 161753Z AUTO 02010KT 10SM CLR 14/M06 A3025 RMK AO2 SLP240 T01391061 10139 20044 50002

시각: 12:52 (18:52 UTC)

예보

예보는 1 시간 32분 전, 17:20시(UTC)에 발표되었습니다.
예보 대상 시간: 16일 18시부터 17일 18시까지 (UTC)
8kt
시정: 10km
고도 25000ft 상공 구름 보통

TAF: KCDS 161720Z 1618/1718 35008KT P6SM SCT250

4,000개 이상의 공항 관측 자료 및 예보 (METAR 및 TAF 보고).

지도상에서 검색 가능한 기상관측소가 노란 점과 빨간 점으로 표시되어 있습니다.

기상관측소 명을 보려면 표시 위로 마우스를 이동하세요.

날씨 관측과 예보를 보려면 클릭하세요.

지도 변경 : 확대하려면 엑스 표시가 있는 녹색 버튼, 축소하려면 빼기 표시가 있는 녹색 버튼, 다음 페이지의 지도를 보려면 녹색 화살표를 클릭하세요.


METAR-TAF: